Time;durP1;ratioP1;P1;durP2;ratioP2;P2;SDS_P1;SDS_P2;PMS_P1;PMS_P2;Temp;Humidity;BMP_temperature;BMP_pressure;BME280_temperature;BME280_humidity;BME280_pressure;Samples;Min_cycle;Max_cycle;Signal;HPM_P1;HPM_P2
2022/05/12 00:02:21;;;;;;;6.35;1.30;;;10.80;99.90;;;;;;5042155;28;20056;-54
2022/05/12 00:04:47;;;;;;;4.85;1.13;;;10.90;99.90;;;;;;5060482;28;20128;-54
2022/05/12 00:07:13;;;;;;;5.88;1.00;;;10.80;99.90;;;;;;5060246;28;20049;-54
2022/05/12 00:09:39;;;;;;;3.80;1.83;;;10.70;99.90;;;;;;5060122;28;20052;-54
2022/05/12 00:12:05;;;;;;;5.57;1.33;;;10.70;99.90;;;;;;5060215;28;20106;-54
2022/05/12 00:14:31;;;;;;;7.82;1.23;;;10.60;99.90;;;;;;5059753;28;20449;-54
2022/05/12 00:16:57;;;;;;;4.03;0.80;;;10.60;99.90;;;;;;5060420;28;20088;-54
2022/05/12 00:19:26;;;;;;;5.38;1.10;;;10.50;99.90;;;;;;5059605;28;20033;-53
2022/05/12 00:21:52;;;;;;;6.72;2.17;;;10.50;99.90;;;;;;5060100;28;20029;-53
2022/05/12 00:24:19;;;;;;;6.40;1.20;;;10.50;99.90;;;;;;5059983;28;20070;-52
2022/05/12 00:26:45;;;;;;;6.13;1.67;;;10.50;99.90;;;;;;5059719;28;20044;-54
2022/05/12 00:29:11;;;;;;;5.95;1.13;;;10.40;99.90;;;;;;5060051;28;20120;-53
2022/05/12 00:31:39;;;;;;;5.75;1.02;;;10.40;99.90;;;;;;5059416;28;20056;-54
2022/05/12 00:34:07;;;;;;;4.53;1.23;;;10.40;99.90;;;;;;5060170;28;20114;-53
2022/05/12 00:36:34;;;;;;;6.47;1.15;;;10.30;99.90;;;;;;5059494;28;20051;-53
2022/05/12 00:38:59;;;;;;;5.47;1.52;;;10.30;99.90;;;;;;5059745;28;20048;-53
2022/05/12 00:41:25;;;;;;;5.35;1.30;;;10.30;99.90;;;;;;5059300;28;20041;-54
2022/05/12 00:43:57;;;;;;;7.93;1.40;;;10.30;99.90;;;;;;5041520;28;20059;-54
2022/05/12 00:46:37;;;;;;;8.00;1.70;;;10.20;99.90;;;;;;5059818;28;20049;-54
2022/05/12 00:49:07;;;;;;;4.35;1.23;;;10.20;99.90;;;;;;5059054;28;20055;-55
2022/05/12 00:51:50;;;;;;;5.47;1.40;;;10.20;99.90;;;;;;5059936;28;20060;-54
2022/05/12 00:54:21;;;;;;;5.38;1.70;;;10.20;99.90;;;;;;5059443;28;20045;-54
2022/05/12 00:56:48;;;;;;;3.53;1.25;;;10.00;99.90;;;;;;5059378;28;20051;-53
2022/05/12 00:59:26;;;;;;;5.05;1.30;;;10.00;99.90;;;;;;5059188;28;20076;-55
2022/05/12 01:01:52;;;;;;;4.70;1.30;;;10.10;99.90;;;;;;5058944;28;20038;-54
2022/05/12 01:04:19;;;;;;;4.50;1.33;;;10.00;99.90;;;;;;5059456;28;20080;-54
2022/05/12 01:06:45;;;;;;;6.95;1.58;;;10.00;99.90;;;;;;5058843;28;20045;-53
2022/05/12 01:09:12;;;;;;;4.85;1.38;;;9.90;99.90;;;;;;5059196;28;20045;-54
2022/05/12 01:11:37;;;;;;;7.65;1.40;;;9.80;99.90;;;;;;5059102;28;20060;-52
2022/05/12 01:14:06;;;;;;;8.38;2.88;;;9.90;99.90;;;;;;5059027;28;20635;-52
2022/05/12 01:16:39;;;;;;;4.85;1.40;;;9.90;99.90;;;;;;5059361;28;20037;-53
2022/05/12 01:19:06;;;;;;;5.10;1.40;;;9.80;99.90;;;;;;5058216;28;20468;-53
2022/05/12 01:21:33;;;;;;;4.43;1.63;;;9.90;99.90;;;;;;5059126;28;20037;-53
2022/05/12 01:24:00;;;;;;;5.15;1.35;;;9.80;99.90;;;;;;5058981;28;20081;-49
2022/05/12 01:26:27;;;;;;;5.20;1.52;;;9.80;99.90;;;;;;5059070;28;20068;-53
2022/05/12 01:28:53;;;;;;;3.65;1.20;;;9.70;99.90;;;;;;5059036;28;20056;-51
2022/05/12 01:31:20;;;;;;;4.82;1.40;;;9.70;99.90;;;;;;5058553;28;20041;-53
2022/05/12 01:33:46;;;;;;;7.20;1.58;;;9.50;99.90;;;;;;5059103;28;20045;-53
2022/05/12 01:36:12;;;;;;;7.15;1.58;;;9.50;99.90;;;;;;5058525;28;20041;-54
2022/05/12 01:38:38;;;;;;;4.75;1.50;;;9.40;99.90;;;;;;5059120;28;20174;-54
2022/05/12 01:41:03;;;;;;;6.97;1.63;;;9.50;99.90;;;;;;5058907;28;20049;-54
2022/05/12 01:43:29;;;;;;;3.92;1.40;;;9.40;99.90;;;;;;5058558;28;20113;-52
2022/05/12 01:45:55;;;;;;;7.03;1.50;;;9.30;99.90;;;;;;5058922;28;20037;-52
2022/05/12 01:48:21;;;;;;;5.47;1.77;;;9.30;99.90;;;;;;5058523;28;20048;-53
2022/05/12 01:50:47;;;;;;;7.13;2.40;;;9.40;99.90;;;;;;5058993;28;20045;-51
2022/05/12 01:53:15;;;;;;;6.68;1.92;;;9.30;99.90;;;;;;5058333;28;20052;-54
2022/05/12 01:55:43;;;;;;;7.32;2.08;;;9.30;99.90;;;;;;5059084;28;20412;-53
2022/05/12 01:58:10;;;;;;;7.03;2.08;;;9.30;99.90;;;;;;5040591;28;20044;-52
2022/05/12 02:00:36;;;;;;;8.88;2.40;;;9.20;99.90;;;;;;5058731;28;20041;-53
2022/05/12 02:03:02;;;;;;;6.75;2.40;;;9.20;99.90;;;;;;5041075;28;20098;-51
2022/05/12 02:05:34;;;;;;;9.48;2.80;;;9.20;99.90;;;;;;5058635;28;20061;-52
2022/05/12 02:08:00;;;;;;;8.45;2.50;;;9.20;99.90;;;;;;5040920;28;20067;-54
2022/05/12 02:10:32;;;;;;;9.95;2.60;;;9.20;99.90;;;;;;5040359;28;20060;-53
2022/05/12 02:12:58;;;;;;;7.90;2.55;;;9.20;99.90;;;;;;5043354;28;20049;-53
2022/05/12 02:15:24;;;;;;;9.45;2.53;;;9.30;99.90;;;;;;5062592;28;20048;-52
2022/05/12 02:17:51;;;;;;;7.18;2.33;;;9.30;99.90;;;;;;5062323;28;20036;-53
2022/05/12 02:20:20;;;;;;;6.15;2.45;;;9.30;99.90;;;;;;5062332;28;20466;-51
2022/05/12 02:22:45;;;;;;;7.03;2.63;;;9.40;99.90;;;;;;5062038;28;20071;-53
2022/05/12 02:25:12;;;;;;;8.88;2.60;;;9.40;99.90;;;;;;5062669;28;20105;-52
2022/05/12 02:27:42;;;;;;;6.82;2.70;;;9.40;99.90;;;;;;5061511;28;20109;-55
2022/05/12 02:30:10;;;;;;;8.32;2.78;;;9.40;99.90;;;;;;5062197;28;20045;-52
2022/05/12 02:32:36;;;;;;;9.90;2.85;;;9.40;99.90;;;;;;5043986;28;20386;-50
2022/05/12 02:35:02;;;;;;;8.18;2.63;;;9.40;99.90;;;;;;5062192;28;20043;-53
2022/05/12 02:37:27;;;;;;;13.18;5.05;;;9.30;99.90;;;;;;5062118;28;20041;-52
2022/05/12 02:39:54;;;;;;;8.48;3.10;;;9.40;99.90;;;;;;5061519;28;20072;-52
2022/05/12 02:42:21;;;;;;;8.48;3.17;;;9.40;99.90;;;;;;5061874;28;20119;-53
2022/05/12 02:44:47;;;;;;;9.10;2.75;;;9.40;99.90;;;;;;5061418;28;20049;-53
2022/05/12 02:47:12;;;;;;;9.13;2.85;;;9.40;99.90;;;;;;5061706;28;20120;-53
2022/05/12 02:49:38;;;;;;;9.60;3.47;;;9.30;99.90;;;;;;5062025;28;20063;-53
2022/05/12 02:52:06;;;;;;;10.13;3.28;;;9.30;99.90;;;;;;5061698;28;20077;-52
2022/05/12 02:54:33;;;;;;;10.98;3.33;;;9.30;99.90;;;;;;5061753;28;20044;-52
2022/05/12 02:56:58;;;;;;;15.68;4.13;;;9.30;99.90;;;;;;5061329;28;20045;-53
2022/05/12 02:59:24;;;;;;;10.18;3.80;;;9.30;99.90;;;;;;5061625;28;20065;-56
2022/05/12 03:01:50;;;;;;;13.77;3.58;;;9.30;99.90;;;;;;5060986;28;20477;-54
2022/05/12 03:04:16;;;;;;;11.23;3.72;;;9.30;99.90;;;;;;5061871;28;20044;-52
2022/05/12 03:06:42;;;;;;;14.38;4.80;;;9.30;99.90;;;;;;5061114;28;20053;-53
2022/05/12 03:09:08;;;;;;;13.82;3.47;;;9.10;99.90;;;;;;5061274;28;20074;-53
2022/05/12 03:11:34;;;;;;;9.30;3.75;;;9.20;99.90;;;;;;5061205;28;20065;-52
2022/05/12 03:14:00;;;;;;;11.68;3.90;;;9.20;99.90;;;;;;5061445;28;20049;-53
2022/05/12 03:16:26;;;;;;;9.57;3.88;;;9.10;99.90;;;;;;5061392;28;20033;-52
2022/05/12 03:18:53;;;;;;;12.63;3.95;;;9.20;99.90;;;;;;5060765;28;20045;-53
2022/05/12 03:21:21;;;;;;;14.50;4.30;;;9.30;99.90;;;;;;5061534;28;20056;-53
2022/05/12 03:23:47;;;;;;;13.50;4.35;;;9.20;99.90;;;;;;5060224;28;20056;-53
2022/05/12 03:26:13;;;;;;;9.65;3.80;;;9.30;99.90;;;;;;5061070;28;20508;-53
2022/05/12 03:28:40;;;;;;;11.80;4.40;;;9.30;99.90;;;;;;5061098;28;20481;-50
2022/05/12 03:31:07;;;;;;;10.85;4.35;;;9.30;99.90;;;;;;5042999;28;20060;-52
2022/05/12 03:33:34;;;;;;;11.52;4.78;;;9.30;99.90;;;;;;5061285;28;20040;-52
2022/05/12 03:36:00;;;;;;;14.35;4.25;;;9.30;99.90;;;;;;5060356;28;20426;-53
2022/05/12 03:38:26;;;;;;;13.45;4.57;;;9.30;99.90;;;;;;5061093;28;20052;-54
2022/05/12 03:40:53;;;;;;;11.20;4.50;;;9.30;99.90;;;;;;5060669;28;20040;-53
2022/05/12 03:46:06;;;;;;;13.48;4.95;;;9.30;99.90;;;;;;5061004;28;20102;-53
2022/05/12 03:48:34;;;;;;;13.55;4.63;;;9.30;99.90;;;;;;5059950;28;20045;-53
2022/05/12 03:50:59;;;;;;;14.30;5.50;;;9.40;99.90;;;;;;5061017;28;20044;-54
2022/05/12 03:53:25;;;;;;;11.70;5.00;;;9.20;99.90;;;;;;5060053;28;20048;-53
2022/05/12 03:55:51;;;;;;;11.45;5.22;;;9.20;99.90;;;;;;5060542;28;20075;-53
2022/05/12 03:58:17;;;;;;;14.10;6.03;;;9.20;99.90;;;;;;5060519;28;20041;-53
2022/05/12 04:00:43;;;;;;;13.13;5.80;;;9.20;99.90;;;;;;5060515;28;20071;-53
2022/05/12 04:03:08;;;;;;;12.82;5.55;;;9.20;99.90;;;;;;5060560;28;20080;-52
2022/05/12 04:05:34;;;;;;;15.10;6.20;;;9.30;99.90;;;;;;5041933;28;20080;-53
2022/05/12 04:08:00;;;;;;;13.57;6.18;;;9.30;99.90;;;;;;5060647;28;20037;-53
2022/05/12 04:10:26;;;;;;;13.02;6.05;;;9.30;99.90;;;;;;5059721;28;20080;-53
2022/05/12 04:12:53;;;;;;;15.20;6.50;;;9.30;99.90;;;;;;5060355;28;20037;-53
2022/05/12 04:15:20;;;;;;;15.43;6.60;;;9.30;99.90;;;;;;5060022;28;20114;-53
2022/05/12 04:17:56;;;;;;;12.48;5.75;;;9.30;99.90;;;;;;5059851;28;20048;-53
2022/05/12 04:20:21;;;;;;;15.38;6.32;;;9.30;99.90;;;;;;5060037;28;20071;-53
2022/05/12 04:22:47;;;;;;;13.90;6.10;;;9.30;99.90;;;;;;5059676;28;20033;-53
2022/05/12 04:25:13;;;;;;;16.00;6.43;;;9.30;99.90;;;;;;5060360;28;20041;-53
2022/05/12 04:27:40;;;;;;;12.88;6.57;;;9.40;99.90;;;;;;5059376;28;20406;-52
2022/05/12 04:30:07;;;;;;;16.70;6.32;;;9.40;99.90;;;;;;5059769;28;20077;-54
2022/05/12 04:32:34;;;;;;;12.52;6.03;;;9.40;99.90;;;;;;5059636;28;20424;-54
2022/05/12 04:35:15;;;;;;;12.95;6.30;;;9.40;99.90;;;;;;5058951;28;20079;-54
2022/05/12 04:37:46;;;;;;;16.42;6.35;;;9.50;99.90;;;;;;5059738;28;20532;-54
2022/05/12 04:40:14;;;;;;;17.88;6.82;;;9.60;99.90;;;;;;5059337;28;20052;-54
2022/05/12 04:42:39;;;;;;;12.75;5.85;;;9.60;99.90;;;;;;5059630;28;20117;-53
2022/05/12 04:45:07;;;;;;;13.52;5.97;;;9.70;99.90;;;;;;5059020;28;20563;-54
2022/05/12 04:47:34;;;;;;;15.88;6.25;;;9.70;99.90;;;;;;5059305;28;20037;-54
2022/05/12 04:49:59;;;;;;;13.35;6.40;;;9.80;99.90;;;;;;5059577;28;20041;-53
2022/05/12 04:52:26;;;;;;;12.60;6.78;;;9.90;99.90;;;;;;5059493;28;20125;-53
2022/05/12 04:54:54;;;;;;;13.63;6.60;;;9.90;99.90;;;;;;5059545;28;20037;-53
2022/05/12 04:57:20;;;;;;;17.08;6.53;;;10.00;99.90;;;;;;5058961;28;20524;-53
2022/05/12 04:59:47;;;;;;;13.40;6.28;;;10.10;99.90;;;;;;5059580;28;20080;-53
2022/05/12 05:02:13;;;;;;;14.80;6.20;;;10.10;99.90;;;;;;5041339;28;20124;-53
2022/05/12 05:04:39;;;;;;;16.38;6.20;;;10.20;99.90;;;;;;5059309;28;20049;-52
2022/05/12 05:07:06;;;;;;;14.05;6.40;;;10.20;99.90;;;;;;5059136;28;20045;-54
2022/05/12 05:09:32;;;;;;;13.10;6.68;;;10.30;99.90;;;;;;5059175;28;20052;-53
2022/05/12 05:11:58;;;;;;;15.43;6.78;;;10.40;99.90;;;;;;5059265;28;20060;-53
2022/05/12 05:14:23;;;;;;;16.27;6.47;;;10.50;99.90;;;;;;5058745;28;20072;-52
2022/05/12 05:16:49;;;;;;;11.82;6.05;;;10.60;99.90;;;;;;5059468;28;20045;-57
2022/05/12 05:19:16;;;;;;;14.18;6.38;;;10.60;99.90;;;;;;5058587;28;20045;-53
2022/05/12 05:21:42;;;;;;;16.10;6.55;;;10.80;99.90;;;;;;5059166;28;20644;-55
2022/05/12 05:24:08;;;;;;;14.00;6.18;;;10.80;99.90;;;;;;5040923;28;20079;-53
2022/05/12 05:26:34;;;;;;;13.80;6.25;;;10.90;99.90;;;;;;5059115;28;20072;-54
2022/05/12 05:29:01;;;;;;;18.75;6.13;;;11.00;99.90;;;;;;5058850;28;20068;-54
2022/05/12 05:31:27;;;;;;;14.48;6.53;;;11.00;99.90;;;;;;5058434;28;20045;-53
2022/05/12 05:33:53;;;;;;;11.73;5.85;;;11.10;99.90;;;;;;5059411;28;20097;-53
2022/05/12 05:36:19;;;;;;;14.40;7.03;;;11.10;99.90;;;;;;5058453;28;20059;-53
2022/05/12 05:38:45;;;;;;;12.82;6.22;;;11.30;99.90;;;;;;5058900;28;20037;-53
2022/05/12 05:41:11;;;;;;;13.75;6.30;;;11.30;99.90;;;;;;5058996;28;20046;-53
2022/05/12 05:43:38;;;;;;;12.55;6.28;;;11.30;99.90;;;;;;5058393;28;20064;-53
2022/05/12 05:46:04;;;;;;;18.20;6.60;;;11.50;99.90;;;;;;5060124;28;20048;-53
2022/05/12 05:48:31;;;;;;;11.80;5.45;;;11.50;99.90;;;;;;5044213;28;20044;-53
2022/05/12 05:53:42;;;;;;;17.40;5.80;;;11.60;99.90;;;;;;5062734;28;20060;-53
2022/05/12 05:56:14;;;;;;;14.63;5.60;;;11.70;99.90;;;;;;5062450;28;20041;-54
2022/05/12 05:58:43;;;;;;;13.40;6.00;;;11.90;99.90;;;;;;5062684;28;20057;-53
2022/05/12 06:01:09;;;;;;;12.02;5.47;;;11.90;99.90;;;;;;5062443;28;20041;-54
2022/05/12 06:03:34;;;;;;;14.27;6.05;;;12.00;99.90;;;;;;5062762;28;20549;-54
2022/05/12 06:06:01;;;;;;;11.98;5.13;;;12.10;99.90;;;;;;5062112;28;20036;-54
2022/05/12 06:08:26;;;;;;;12.93;4.80;;;12.20;99.90;;;;;;5062398;28;20163;-54
2022/05/12 06:10:52;;;;;;;10.70;4.50;;;12.20;99.90;;;;;;5062043;28;20087;-53
2022/05/12 06:13:18;;;;;;;13.18;4.65;;;12.30;99.90;;;;;;5062600;28;20033;-53
2022/05/12 06:15:44;;;;;;;11.02;4.75;;;12.40;99.90;;;;;;5044439;28;20041;-51
2022/05/12 06:18:13;;;;;;;11.30;4.22;;;12.40;99.90;;;;;;5062130;28;20040;-54
2022/05/12 06:20:41;;;;;;;14.90;5.53;;;12.40;99.90;;;;;;5062809;28;20040;-53
2022/05/12 06:23:08;;;;;;;11.32;4.18;;;12.60;99.90;;;;;;5043661;28;20041;-55
2022/05/12 06:25:35;;;;;;;11.55;3.55;;;12.70;99.90;;;;;;5062314;28;20033;-53
2022/05/12 06:28:00;;;;;;;9.73;3.72;;;12.80;99.90;;;;;;5061963;28;20064;-55
2022/05/12 06:30:29;;;;;;;9.93;3.10;;;12.80;99.90;;;;;;5062158;28;20045;-54
2022/05/12 06:32:56;;;;;;;13.02;3.92;;;12.80;99.90;;;;;;5062101;28;20114;-53
2022/05/12 06:35:23;;;;;;;10.65;3.33;;;12.90;99.90;;;;;;5061931;28;20045;-54
2022/05/12 06:37:49;;;;;;;11.63;3.60;;;12.90;99.90;;;;;;5062173;28;20041;-54
2022/05/12 06:40:16;;;;;;;11.25;3.30;;;13.00;99.90;;;;;;5061700;28;20045;-54
2022/05/12 06:42:42;;;;;;;10.50;3.35;;;13.00;99.90;;;;;;5044131;28;20079;-58
2022/05/12 06:45:10;;;;;;;10.35;3.83;;;13.10;99.90;;;;;;5027394;28;20063;-53
2022/05/12 06:47:36;;;;;;;13.77;3.80;;;13.10;99.90;;;;;;5057716;28;20055;-53
2022/05/12 06:50:03;;;;;;;9.68;2.90;;;13.10;99.90;;;;;;5058634;28;20084;-51
2022/05/12 06:52:30;;;;;;;7.88;2.47;;;13.20;99.90;;;;;;5040528;28;20868;-54
2022/05/12 06:54:56;;;;;;;12.15;2.60;;;13.30;99.90;;;;;;5058854;28;20056;-54
2022/05/12 06:57:27;;;;;;;11.30;3.25;;;13.40;99.90;;;;;;5056968;28;20199;-53
2022/05/12 06:59:53;;;;;;;10.32;2.80;;;13.50;99.90;;;;;;5058239;28;20045;-53
2022/05/12 07:02:19;;;;;;;12.25;3.53;;;13.50;99.90;;;;;;5058430;28;20052;-52
2022/05/12 07:04:46;;;;;;;9.70;3.35;;;13.50;99.90;;;;;;5058256;28;20069;-53
2022/05/12 07:07:13;;;;;;;11.48;3.63;;;13.60;99.90;;;;;;5058440;28;20048;-53
2022/05/12 07:09:39;;;;;;;9.38;2.90;;;13.70;99.90;;;;;;5058080;28;20109;-53
2022/05/12 07:12:05;;;;;;;8.48;2.60;;;13.80;99.90;;;;;;5040527;28;20037;-52
2022/05/12 07:14:31;;;;;;;7.90;2.55;;;13.90;99.90;;;;;;5057947;28;20060;-53
2022/05/12 07:16:58;;;;;;;13.48;2.80;;;13.90;99.90;;;;;;5058147;28;20053;-54
2022/05/12 07:19:24;;;;;;;9.60;2.20;;;13.90;99.90;;;;;;5039891;28;20126;-53
2022/05/12 07:27:18;;;;;;;14.55;3.67;;;13.90;99.90;;;;;;5057623;28;20053;-53
2022/05/12 07:29:44;;;;;;;13.38;2.67;;;14.00;99.90;;;;;;5058282;28;20084;-53
2022/05/12 07:32:10;;;;;;;10.43;2.40;;;13.90;99.90;;;;;;5057630;28;20045;-54
2022/05/12 07:34:36;;;;;;;13.90;2.60;;;13.80;99.90;;;;;;5057831;28;20626;-53
2022/05/12 07:37:03;;;;;;;12.93;3.15;;;14.00;99.90;;;;;;5039834;28;20057;-53
2022/05/12 07:39:31;;;;;;;9.20;2.35;;;13.90;99.90;;;;;;5057896;28;20080;-52
2022/05/12 07:41:58;;;;;;;9.15;2.92;;;14.10;99.90;;;;;;5057749;28;20083;-54
2022/05/12 07:44:31;;;;;;;12.20;2.60;;;14.20;99.90;;;;;;5056895;28;20064;-54
2022/05/12 07:47:02;;;;;;;10.32;2.45;;;14.20;99.90;;;;;;5057279;28;20083;-53
2022/05/12 07:49:33;;;;;;;15.20;2.83;;;14.30;99.90;;;;;;5057627;28;20052;-52
2022/05/12 07:51:59;;;;;;;13.17;2.57;;;14.30;99.90;;;;;;5057402;28;20056;-53
2022/05/12 07:54:26;;;;;;;13.60;2.63;;;14.40;99.90;;;;;;5057641;28;20104;-54
2022/05/12 07:56:52;;;;;;;10.85;2.70;;;14.30;99.90;;;;;;5057993;28;20101;-53
2022/05/12 07:59:17;;;;;;;12.07;2.47;;;14.20;99.90;;;;;;5042787;28;20071;-53
2022/05/12 08:01:43;;;;;;;12.52;2.47;;;14.20;99.90;;;;;;5059880;28;20083;-53
2022/05/12 08:04:09;;;;;;;11.75;2.03;;;14.30;99.90;;;;;;5060755;28;20041;-53
2022/05/12 08:06:35;;;;;;;9.00;2.25;;;14.40;99.90;;;;;;5060478;28;20032;-51
2022/05/12 08:09:02;;;;;;;10.02;2.13;;;14.50;99.90;;;;;;5042264;28;20072;-53
2022/05/12 08:11:28;;;;;;;12.65;2.63;;;14.50;99.90;;;;;;5060210;28;20045;-49
2022/05/12 08:13:53;;;;;;;11.38;2.25;;;14.70;99.90;;;;;;5060220;28;20052;-52
2022/05/12 08:16:21;;;;;;;8.68;2.40;;;14.80;99.90;;;;;;5060595;28;20113;-50
2022/05/12 08:18:49;;;;;;;11.57;2.28;;;15.00;99.90;;;;;;5059635;28;20045;-49
2022/05/12 08:21:17;;;;;;;10.30;2.50;;;15.10;99.90;;;;;;5054225;28;20059;-51
2022/05/12 08:23:43;;;;;;;9.35;2.00;;;15.20;99.90;;;;;;5060004;28;20041;-53
2022/05/12 08:26:10;;;;;;;10.40;2.00;;;15.00;99.90;;;;;;5059863;28;20059;-51
2022/05/12 08:28:37;;;;;;;10.02;1.77;;;15.00;99.90;;;;;;5060052;28;20428;-54
2022/05/12 08:31:04;;;;;;;7.25;1.77;;;14.90;99.90;;;;;;5059608;28;20068;-52
2022/05/12 08:33:29;;;;;;;8.85;1.73;;;15.00;99.90;;;;;;5060011;28;20041;-52
2022/05/12 08:35:55;;;;;;;9.35;2.10;;;15.10;99.90;;;;;;5058345;28;20098;-52
2022/05/12 08:38:22;;;;;;;9.30;1.95;;;15.20;99.90;;;;;;5059990;28;20056;-49
2022/05/12 08:41:02;;;;;;;7.20;1.80;;;15.10;99.90;;;;;;5059290;28;20083;-52
2022/05/12 08:43:43;;;;;;;7.35;1.80;;;15.00;99.90;;;;;;5059622;28;20477;-52
2022/05/12 08:46:19;;;;;;;8.55;1.67;;;15.30;99.90;;;;;;5059694;28;20045;-50
2022/05/12 08:48:46;;;;;;;8.70;1.83;;;15.30;99.90;;;;;;5058445;28;20059;-52
2022/05/12 08:51:19;;;;;;;9.75;1.73;;;15.40;99.90;;;;;;5059526;28;20045;-52
2022/05/12 08:53:58;;;;;;;8.90;1.80;;;15.20;99.90;;;;;;5058524;28;20505;-52
2022/05/12 08:56:25;;;;;;;10.85;2.10;;;15.40;99.90;;;;;;5058152;28;20044;-53
2022/05/12 08:58:55;;;;;;;10.80;2.20;;;15.40;99.90;;;;;;5040666;28;20041;-51
2022/05/12 09:01:57;;;;;;;7.63;1.55;;;15.50;99.90;;;;;;5058471;28;20106;-52
2022/05/12 09:04:40;;;;;;;10.70;1.80;;;15.20;99.90;;;;;;5019586;28;20060;-52
2022/05/12 09:07:29;;;;;;;7.75;1.85;;;15.20;99.90;;;;;;5059172;28;20059;-51
2022/05/12 09:10:16;;;;;;;10.23;1.80;;;15.10;99.90;;;;;;5040680;28;20036;-52
2022/05/12 09:12:52;;;;;;;6.20;1.15;;;14.80;99.90;;;;;;5039629;28;20053;-51
2022/05/12 09:15:51;;;;;;;5.97;1.50;;;14.90;99.90;;;;;;5039182;28;20050;-51
2022/05/12 09:18:22;;;;;;;8.02;2.00;;;15.30;99.90;;;;;;5037882;28;20053;-52
2022/05/12 09:20:48;;;;;;;9.15;1.65;;;15.20;99.90;;;;;;5039182;28;20072;-53
2022/05/12 09:23:13;;;;;;;9.10;2.80;;;15.40;99.90;;;;;;5037989;28;20049;-52
2022/05/12 09:25:46;;;;;;;8.73;2.13;;;15.60;99.90;;;;;;5039253;28;20060;-50
2022/05/12 09:28:30;;;;;;;5.07;1.63;;;15.70;99.90;;;;;;5039152;28;20291;-52
2022/05/12 09:31:20;;;;;;;7.38;1.58;;;15.60;99.90;;;;;;5039174;28;20056;-50
2022/05/12 09:33:49;;;;;;;9.93;1.88;;;15.80;99.90;;;;;;5039317;28;20080;-51
2022/05/12 09:36:35;;;;;;;9.00;2.10;;;15.90;99.90;;;;;;5038692;28;20049;-50
2022/05/12 09:39:01;;;;;;;8.88;1.92;;;15.80;99.90;;;;;;5038599;28;20404;-52
2022/05/12 09:41:44;;;;;;;7.25;1.80;;;15.80;99.90;;;;;;5039104;28;20073;-53
2022/05/12 09:44:17;;;;;;;7.97;1.33;;;15.60;99.90;;;;;;5038579;28;20076;-53
2022/05/12 09:47:23;;;;;;;8.52;2.03;;;15.50;99.90;;;;;;5039222;28;20037;-52
2022/05/12 09:49:49;;;;;;;6.55;1.40;;;15.70;99.90;;;;;;5025953;28;20050;-51
2022/05/12 09:52:32;;;;;;;9.63;1.75;;;15.80;99.90;;;;;;5038809;28;20038;-53
2022/05/12 09:55:15;;;;;;;8.20;1.52;;;16.00;99.90;;;;;;5039361;28;20457;-48
2022/05/12 09:58:02;;;;;;;10.15;1.85;;;15.60;99.90;;;;;;5038106;28;20050;-52
2022/05/12 10:00:43;;;;;;;6.13;1.40;;;15.50;99.90;;;;;;5038877;28;20351;-52
2022/05/12 10:09:31;;;;;;;6.78;1.48;;;16.30;99.90;;;;;;5038693;28;20067;-52
2022/05/12 10:12:06;;;;;;;;;;;16.00;99.90;;;;;;5055771;28;20048;-52
2022/05/12 10:14:42;;;;;;;5.97;1.30;;;16.10;99.90;;;;;;5058109;28;19938;-52
2022/05/12 10:17:39;;;;;;;5.50;1.30;;;15.80;99.90;;;;;;5058599;28;20065;-52
2022/05/12 10:20:09;;;;;;;7.65;1.98;;;16.10;99.90;;;;;;5058439;28;20473;-51
2022/05/12 10:23:06;;;;;;;8.45;1.75;;;15.90;99.90;;;;;;5058041;28;20041;-54
2022/05/12 10:25:56;;;;;;;5.45;1.40;;;15.90;99.90;;;;;;5027495;28;20138;-52
2022/05/12 10:28:39;;;;;;;5.88;1.30;;;15.70;99.90;;;;;;5057983;28;20053;-52
2022/05/12 10:31:26;;;;;;;7.85;2.13;;;15.90;99.90;;;;;;5058049;28;20505;-51
2022/05/12 10:34:10;;;;;;;7.43;1.50;;;15.80;99.90;;;;;;5061067;28;20041;-50
2022/05/12 10:36:47;;;;;;;8.02;1.52;;;15.70;99.90;;;;;;5062047;28;20060;-50
2022/05/12 10:39:41;;;;;;;7.47;1.88;;;15.90;99.90;;;;;;5061725;28;20105;-53
2022/05/12 10:42:25;;;;;;;5.55;1.33;;;16.00;99.90;;;;;;5062071;28;20056;-53
2022/05/12 10:45:14;;;;;;;5.63;1.38;;;16.30;99.90;;;;;;5043799;28;20045;-53
2022/05/12 10:48:00;;;;;;;7.07;1.40;;;16.60;99.90;;;;;;5061394;28;20053;-54
2022/05/12 10:50:33;;;;;;;5.40;1.38;;;16.50;99.90;;;;;;5062154;28;20504;-52
2022/05/12 10:53:15;;;;;;;5.65;1.33;;;16.60;99.90;;;;;;5061229;28;20063;-52
2022/05/12 10:56:17;;;;;;;4.75;1.25;;;16.70;99.90;;;;;;5061970;28;20096;-53
2022/05/12 10:58:52;;;;;;;6.30;1.40;;;16.50;99.90;;;;;;5061976;28;20068;-50
2022/05/12 11:01:32;;;;;;;7.45;1.50;;;16.30;99.90;;;;;;5061313;28;20060;-52
2022/05/12 11:04:20;;;;;;;5.75;1.20;;;16.40;99.90;;;;;;5062035;28;20607;-53
2022/05/12 11:06:53;;;;;;;6.10;1.80;;;16.50;99.90;;;;;;5043705;28;20075;-53
2022/05/12 11:09:32;;;;;;;7.57;1.50;;;17.10;99.90;;;;;;5043268;28;20079;-53
2022/05/12 11:12:04;;;;;;;6.90;1.30;;;16.90;99.90;;;;;;5061528;28;20501;-53
2022/05/12 11:14:39;;;;;;;5.90;1.40;;;17.00;99.90;;;;;;5060934;28;20044;-53
2022/05/12 11:17:10;;;;;;;6.72;1.40;;;17.10;99.90;;;;;;5061147;28;20055;-53
2022/05/12 11:19:38;;;;;;;6.45;1.23;;;17.30;99.90;;;;;;5061488;28;20060;-54
2022/05/12 11:22:36;;;;;;;7.05;1.30;;;17.40;99.90;;;;;;5061231;28;20082;-54
2022/05/12 11:25:17;;;;;;;5.90;1.33;;;17.40;99.90;;;;;;5061397;28;20631;-54
2022/05/12 11:31:15;;;;;;;6.60;1.10;;;17.60;99.90;;;;;;5061210;28;20599;-53
2022/05/12 11:33:46;;;;;;;5.20;1.20;;;16.70;99.90;;;;;;5043367;28;20287;-53
2022/05/12 11:36:12;;;;;;;6.10;1.50;;;16.70;99.90;;;;;;5060779;28;20159;-53
2022/05/12 11:38:43;;;;;;;6.95;1.20;;;17.00;99.90;;;;;;5061045;28;20561;-51
2022/05/12 11:41:21;;;;;;;4.88;1.42;;;17.10;99.90;;;;;;5060945;28;20432;-53
2022/05/12 11:46:51;;;;;;;6.25;1.90;;;17.60;99.90;;;;;;5061072;28;20052;-52
2022/05/12 11:49:45;;;;;;;7.63;1.67;;;17.60;99.90;;;;;;5060517;28;20068;-50
2022/05/12 11:52:32;;;;;;;7.60;1.60;;;17.80;99.90;;;;;;5060538;28;20045;-52
2022/05/12 11:55:18;;;;;;;5.63;1.33;;;17.70;99.90;;;;;;5061202;28;20052;-52
2022/05/12 11:57:55;;;;;;;8.02;1.40;;;17.50;99.90;;;;;;5040463;28;20049;-52
2022/05/12 12:00:35;;;;;;;5.15;1.40;;;17.40;99.90;;;;;;5040695;28;20056;-53
2022/05/12 12:03:19;;;;;;;5.18;1.27;;;17.50;99.90;;;;;;5040717;28;20076;-50
2022/05/12 12:05:48;;;;;;;6.55;1.52;;;17.10;99.90;;;;;;5039846;28;20485;-51
2022/05/12 12:08:39;;;;;;;4.20;1.63;;;17.40;99.90;;;;;;5040291;28;20489;-53
2022/05/12 12:11:14;;;;;;;5.63;1.50;;;17.40;99.90;;;;;;5041057;28;20063;-53
2022/05/12 12:13:42;;;;;;;5.90;1.60;;;17.70;99.90;;;;;;5060361;28;20152;-52
2022/05/12 12:16:19;;;;;;;5.57;1.45;;;18.00;99.90;;;;;;5059628;28;20060;-53
2022/05/12 12:18:50;;;;;;;7.28;1.45;;;17.40;99.90;;;;;;5041111;28;20045;-53
2022/05/12 12:21:31;;;;;;;6.18;1.65;;;17.40;99.90;;;;;;5058237;28;20520;-52
2022/05/12 12:24:22;;;;;;;8.43;1.83;;;17.20;99.90;;;;;;5059734;28;20069;-52
2022/05/12 12:26:55;;;;;;;6.00;1.80;;;17.40;99.90;;;;;;5057572;28;20082;-52
2022/05/12 12:29:45;;;;;;;5.35;1.60;;;17.30;99.90;;;;;;5040410;28;20056;-52
2022/05/12 12:32:32;;;;;;;5.78;1.63;;;17.50;99.90;;;;;;5039767;28;20760;-50
2022/05/12 12:35:26;;;;;;;4.80;1.40;;;17.10;99.90;;;;;;5039283;28;20065;-50
2022/05/12 12:37:52;;;;;;;7.35;1.65;;;17.60;99.90;;;;;;5037363;28;20064;-51
2022/05/12 12:40:30;;;;;;;6.97;1.55;;;17.80;99.90;;;;;;5051700;28;20552;-52
2022/05/12 12:42:56;;;;;;;5.57;1.50;;;17.80;99.90;;;;;;5056911;28;20072;-52
2022/05/12 12:45:23;;;;;;;5.85;1.83;;;17.40;99.90;;;;;;5041865;28;20045;-51
2022/05/12 12:48:09;;;;;;;8.73;1.80;;;17.60;99.90;;;;;;5059106;28;20101;-52
2022/05/12 12:50:41;;;;;;;8.30;1.77;;;17.40;99.90;;;;;;5059831;28;20350;-51
2022/05/12 12:56:31;;;;;;;6.80;2.00;;;17.30;99.90;;;;;;5058466;28;20118;-52
2022/05/12 12:58:59;;;;;;;8.65;1.98;;;17.60;99.90;;;;;;5059340;28;20041;-52
2022/05/12 13:01:36;;;;;;;8.45;1.45;;;17.90;99.90;;;;;;5039855;28;20037;-52
2022/05/12 13:04:02;;;;;;;5.65;1.60;;;18.10;99.90;;;;;;5057293;28;20044;-50
2022/05/12 13:06:36;;;;;;;6.50;1.50;;;18.40;99.90;;;;;;5058795;28;20045;-52
2022/05/12 13:09:12;;;;;;;3.22;0.90;;;17.70;97.60;;;;;;5059168;28;20123;-52
2022/05/12 13:11:39;;;;;;;5.45;1.52;;;17.30;99.90;;;;;;5058988;28;20051;-52
2022/05/12 13:14:08;;;;;;;7.53;1.50;;;17.30;99.90;;;;;;5058623;28;20068;-52
2022/05/12 13:16:38;;;;;;;5.63;1.27;;;17.30;99.90;;;;;;5059512;28;20033;-52
2022/05/12 13:19:05;;;;;;;5.53;1.48;;;17.40;99.90;;;;;;5058397;28;20037;-51
2022/05/12 13:21:43;;;;;;;8.23;2.13;;;17.00;99.90;;;;;;5041028;28;20041;-54
2022/05/12 13:24:13;;;;;;;9.98;1.90;;;17.20;99.90;;;;;;5059233;28;20045;-51
2022/05/12 13:26:43;;;;;;;8.23;1.80;;;17.30;99.90;;;;;;5058911;28;20456;-53
2022/05/12 13:29:09;;;;;;;6.22;1.77;;;17.00;99.90;;;;;;5041190;28;20064;-52
2022/05/12 13:31:41;;;;;;;6.38;1.70;;;17.10;99.90;;;;;;5058412;28;20098;-53